| time (UTC) | temp F | wind direction | speed knots | gust knots | rain 1hr in | rain 24hr in | rain mn in | humidity % | barometer mb |
| 20260510065729 | 50 | 51 | 0.9 | 0.9 | 0.00 | 0.00 | 0.00 | 99 | 1011.1 |
| 20260510065226 | 50 | 34 | 0.9 | 0.9 | 0.00 | 0.00 | 0.00 | 99 | 1011.0 |
| 20260510064723 | 50 | 20 | 0.9 | 0.9 | 0.00 | 0.00 | 0.00 | 99 | 1010.9 |
| 20260510064221 | 50 | 358 | 0.9 | 0.9 | 0.00 | 0.00 | 0.00 | 99 | 1010.8 |
| 20260510063717 | 49 | 114 | 0.9 | 0.9 | 0.00 | 0.00 | 0.00 | 99 | 1010.7 |
| 20260510063213 | 49 | 44 | 0.9 | 0.9 | 0.00 | 0.00 | 0.00 | 98 | 1010.4 |
| 20260510062710 | 49 | 44 | 0.0 | 0.0 | 0.00 | 0.00 | 0.00 | 98 | 1010.5 |
| 20260510062206 | 50 | 44 | 0.0 | 0.0 | 0.00 | 0.00 | 0.00 | 98 | 1010.4 |
| 20260510061701 | 50 | 42 | 0.0 | 0.9 | 0.00 | 0.00 | 0.00 | 98 | 1010.4 |
| 20260510061158 | 50 | 46 | 0.0 | 0.0 | 0.00 | 0.00 | 0.00 | 98 | 1010.2 |
| 20260510060655 | 51 | 47 | 0.0 | 0.0 | 0.00 | 0.00 | 0.00 | 98 | 1010.3 |
| 20260510060151 | 51 | 42 | 0.0 | 0.0 | 0.00 | 0.00 | 0.00 | 98 | 1010.4 |
| 20260510055648 | 51 | 41 | 0.0 | 0.0 | 0.00 | 0.00 | 0.00 | 98 | 1010.5 |
| 20260510055146 | 52 | 40 | 0.0 | 0.0 | 0.00 | 0.00 | 0.00 | 98 | 1010.7 |
| 20260510054641 | 52 | 325 | 2.6 | 2.6 | 0.00 | 0.00 | 0.00 | 98 | 1010.7 |
| 20260510054137 | 52 | 41 | 0.0 | 0.9 | 0.00 | 0.00 | 0.00 | 98 | 1010.5 |
| 20260510053636 | 53 | 45 | 0.0 | 0.9 | 0.00 | 0.00 | 0.00 | 98 | 1010.6 |
| 20260510053133 | 53 | 56 | 0.0 | 0.0 | 0.00 | 0.00 | 0.00 | 98 | 1010.8 |
| 20260510052629 | 53 | 43 | 0.0 | 0.0 | 0.00 | 0.00 | 0.00 | 98 | 1010.6 |
| 20260510052125 | 53 | 48 | 0.0 | 0.0 | 0.00 | 0.00 | 0.00 | 98 | 1010.5 |
| 20260510051621 | 53 | 46 | 0.0 | 0.0 | 0.00 | 0.00 | 0.00 | 98 | 1010.6 |
| 20260510051118 | 53 | 39 | 0.0 | 0.0 | 0.00 | 0.00 | 0.00 | 98 | 1010.4 |
| 20260510050615 | 53 | 312 | 0.9 | 1.7 | 0.00 | 0.00 | 0.00 | 98 | 1010.1 |
| 20260510050112 | 53 | 9 | 1.7 | 1.7 | 0.00 | 0.00 | 0.00 | 98 | 1010.1 |
| 20260510045604 | 53 | 48 | 0.0 | 0.0 | 0.00 | 0.00 | 0.00 | 98 | 1010.5 |
| 20260510045059 | 53 | 21 | 0.0 | 0.9 | 0.00 | 0.00 | 0.00 | 98 | 1010.3 |
| 20260510044556 | 53 | 29 | 0.0 | 0.9 | 0.00 | 0.00 | 0.00 | 98 | 1010.3 |
| 20260510044054 | 53 | 171 | 0.9 | 1.7 | 0.00 | 0.00 | 0.00 | 98 | 1010.3 |
| 20260510043548 | 53 | 36 | 0.9 | 1.7 | 0.00 | 0.00 | 0.00 | 98 | 1010.1 |
| 20260510043045 | 53 | 299 | 1.7 | 1.7 | 0.00 | 0.00 | 0.00 | 98 | 1010.2 |
| 20260510042539 | 53 | 15 | 1.7 | 1.7 | 0.00 | 0.00 | 0.00 | 98 | 1010.4 |
| 20260510042034 | 53 | 201 | 1.7 | 1.7 | 0.00 | 0.00 | 0.00 | 98 | 1009.9 |
| 20260510041531 | 52 | 230 | 0.9 | 1.7 | 0.00 | 0.00 | 0.00 | 99 | 1010.3 |
| 20260510041028 | 52 | 43 | 0.9 | 0.9 | 0.00 | 0.00 | 0.00 | 98 | 1010.3 |
| 20260510040520 | 52 | 18 | 0.9 | 0.9 | 0.00 | 0.00 | 0.00 | 98 | 1010.0 |
| 20260510040015 | 52 | 69 | 0.9 | 0.9 | 0.00 | 0.25 | 0.25 | 98 | 1010.1 |
| 20260510035512 | 52 | 24 | 0.9 | 0.9 | 0.00 | 0.25 | 0.25 | 99 | 1010.2 |
| 20260510035011 | 53 | 21 | 2.6 | 2.6 | 0.00 | 0.25 | 0.25 | 99 | 1010.3 |
| 20260510034511 | 53 | 100 | 0.9 | 1.7 | 0.00 | 0.25 | 0.25 | 99 | 1010.2 |
| 20260510034006 | 53 | 41 | 0.9 | 0.9 | 0.00 | 0.25 | 0.25 | 99 | 1010.1 |
| 20260510033502 | 53 | 203 | 0.9 | 0.9 | 0.00 | 0.25 | 0.25 | 99 | 1010.3 |
| 20260510032959 | 53 | 43 | 0.0 | 0.0 | 0.00 | 0.25 | 0.25 | 99 | 1010.0 |
| 20260510032456 | 52 | 340 | 0.9 | 1.7 | 0.00 | 0.25 | 0.25 | 99 | 1010.1 |
| 20260510031951 | 52 | 46 | 0.0 | 0.0 | 0.00 | 0.25 | 0.25 | 99 | 1010.0 |
| 20260510031447 | 52 | 41 | 0.0 | 0.9 | 0.00 | 0.25 | 0.25 | 99 | 1009.7 |
| 20260510030943 | 52 | 41 | 0.0 | 0.0 | 0.00 | 0.25 | 0.25 | 99 | 1009.8 |
| 20260510030438 | 51 | 39 | 0.9 | 1.7 | 0.00 | 0.25 | 0.25 | 99 | 1009.9 |
| 20260510025936 | 51 | 45 | 0.0 | 0.0 | 0.00 | 0.25 | 0.25 | 99 | 1010.0 |
| 20260510025433 | 51 | 47 | 0.0 | 0.9 | 0.00 | 0.25 | 0.25 | 99 | 1010.0 |
| 20260510024931 | 50 | 41 | 0.0 | 0.0 | 0.00 | 0.25 | 0.25 | 99 | 1009.8 |
| 20260510024427 | 50 | 38 | 0.0 | 0.9 | 0.00 | 0.25 | 0.25 | 99 | 1009.8 |
| 20260510023923 | 50 | 36 | 0.0 | 0.0 | 0.00 | 0.25 | 0.25 | 99 | 1009.8 |
| 20260510023419 | 49 | 39 | 0.9 | 0.9 | 0.00 | 0.25 | 0.25 | 99 | 1010.1 |
| 20260510022917 | 49 | 44 | 0.0 | 0.0 | 0.00 | 0.25 | 0.25 | 99 | 1009.6 |
| 20260510022415 | 49 | 41 | 0.0 | 0.0 | 0.00 | 0.25 | 0.25 | 99 | 1010.0 |
| 20260510021915 | 49 | 44 | 0.0 | 0.0 | 0.00 | 0.25 | 0.25 | 98 | 1010.0 |
| 20260510021413 | 49 | 45 | 0.0 | 0.0 | 0.00 | 0.25 | 0.25 | 98 | 1010.0 |
| 20260510020909 | 49 | 44 | 0.0 | 0.0 | 0.00 | 0.25 | 0.25 | 98 | 1009.8 |
| 20260510020404 | 49 | 44 | 0.0 | 0.0 | 0.00 | 0.25 | 0.25 | 98 | 1009.8 |
| 20260510015900 | 50 | 43 | 0.0 | 0.0 | 0.00 | 0.25 | 0.25 | 98 | 1009.6 |
| 20260510015356 | 50 | 45 | 0.0 | 0.9 | 0.00 | 0.25 | 0.25 | 98 | 1009.8 |
| 20260510014851 | 50 | 42 | 0.0 | 0.0 | 0.00 | 0.25 | 0.25 | 98 | 1009.6 |
| 20260510014349 | 50 | 43 | 0.9 | 0.9 | 0.00 | 0.25 | 0.25 | 98 | 1009.6 |
| 20260510013845 | 50 | 52 | 0.0 | 0.0 | 0.00 | 0.25 | 0.25 | 98 | 1009.6 |
| 20260510013341 | 50 | 49 | 0.0 | 0.0 | 0.00 | 0.25 | 0.25 | 98 | 1009.8 |
| 20260510012836 | 50 | 41 | 0.0 | 0.0 | 0.00 | 0.25 | 0.25 | 98 | 1009.8 |
| 20260510012335 | 50 | 45 | 0.0 | 0.0 | 0.00 | 0.25 | 0.25 | 98 | 1009.6 |
| 20260510011831 | 51 | 45 | 0.0 | 0.0 | 0.00 | 0.25 | 0.25 | 98 | 1009.6 |
| 20260510011326 | 51 | 45 | 0.0 | 0.0 | 0.00 | 0.25 | 0.25 | 97 | 1009.5 |
| 20260510010823 | 51 | 31 | 0.9 | 0.9 | 0.00 | 0.25 | 0.25 | 97 | 1009.6 |
| 20260510010320 | 51 | 45 | 0.0 | 0.0 | 0.00 | 0.25 | 0.25 | 97 | 1009.6 |
| 20260510005817 | 51 | 47 | 0.0 | 0.0 | 0.00 | 0.25 | 0.25 | 97 | 1009.3 |
| 20260510005313 | 51 | 46 | 0.0 | 0.9 | 0.00 | 0.25 | 0.25 | 97 | 1009.3 |
| 20260510004811 | 52 | 47 | 0.0 | 0.9 | 0.00 | 0.25 | 0.25 | 97 | 1009.4 |
| 20260510004308 | 52 | 44 | 0.0 | 0.0 | 0.00 | 0.25 | 0.25 | 97 | 1009.1 |
| 20260510003806 | 52 | 49 | 0.0 | 0.0 | 0.00 | 0.25 | 0.25 | 96 | 1008.9 |
| 20260510003303 | 52 | 49 | 0.0 | 0.0 | 0.00 | 0.25 | 0.25 | 96 | 1009.0 |
| 20260510002801 | 53 | 48 | 0.9 | 0.9 | 0.00 | 0.25 | 0.25 | 96 | 1009.0 |
| 20260510002259 | 53 | 46 | 0.0 | 0.0 | 0.00 | 0.25 | 0.25 | 95 | 1008.9 |
| 20260510001755 | 53 | 46 | 0.0 | 0.0 | 0.00 | 0.25 | 0.25 | 95 | 1009.0 |
| 20260510001254 | 54 | 46 | 0.9 | 1.7 | 0.00 | 0.25 | 0.25 | 94 | 1008.9 |
| 20260510000749 | 54 | 49 | 0.0 | 0.0 | 0.00 | 0.25 | 0.25 | 93 | 1008.5 |
| 20260510000248 | 55 | 51 | 0.0 | 0.0 | 0.00 | 0.25 | 0.25 | 93 | 1008.6 |
| 20260509235744 | 55 | 52 | 0.0 | 0.0 | 0.00 | 0.25 | 0.25 | 92 | 1008.6 |
| 20260509235240 | 56 | 43 | 0.0 | 0.0 | 0.00 | 0.25 | 0.25 | 91 | 1008.5 |
| 20260509234736 | 57 | 111 | 0.9 | 0.9 | 0.00 | 0.25 | 0.25 | 89 | 1008.7 |
| 20260509234233 | 57 | 55 | 0.0 | 0.0 | 0.00 | 0.25 | 0.25 | 89 | 1008.4 |
| 20260509233731 | 57 | 42 | 0.0 | 0.0 | 0.00 | 0.25 | 0.25 | 89 | 1008.5 |
| 20260509233228 | 57 | 26 | 0.9 | 1.7 | 0.00 | 0.25 | 0.25 | 88 | 1008.5 |
| 20260509232724 | 58 | 294 | 1.7 | 2.6 | 0.00 | 0.25 | 0.25 | 87 | 1008.5 |
| 20260509232222 | 58 | 21 | 0.9 | 0.9 | 0.00 | 0.25 | 0.25 | 87 | 1008.2 |
| 20260509231718 | 58 | 218 | 2.6 | 2.6 | 0.00 | 0.25 | 0.25 | 86 | 1008.5 |
| 20260509231215 | 58 | 348 | 0.9 | 1.7 | 0.00 | 0.25 | 0.25 | 86 | 1008.3 |
| 20260509230713 | 59 | 43 | 0.0 | 0.9 | 0.00 | 0.25 | 0.25 | 85 | 1008.1 |
| 20260509230209 | 59 | 76 | 0.0 | 0.9 | 0.00 | 0.25 | 0.25 | 85 | 1008.3 |
| 20260509225705 | 60 | 252 | 0.9 | 0.9 | 0.00 | 0.25 | 0.25 | 83 | 1008.4 |
| 20260509225201 | 59 | 325 | 0.9 | 1.7 | 0.00 | 0.25 | 0.25 | 84 | 1008.3 |
| 20260509224657 | 60 | 32 | 0.9 | 0.9 | 0.00 | 0.25 | 0.25 | 84 | 1008.3 |
| 20260509224154 | 60 | 36 | 0.9 | 0.9 | 0.00 | 0.25 | 0.25 | 84 | 1008.3 |
| 20260509223650 | 59 | 237 | 4.3 | 6.1 | 0.00 | 0.25 | 0.25 | 84 | 1008.4 |
| 20260509223148 | 61 | 38 | 0.9 | 1.7 | 0.00 | 0.25 | 0.25 | 82 | 1008.6 |
| 20260509222645 | 60 | 145 | 0.9 | 0.9 | 0.00 | 0.25 | 0.25 | 83 | 1008.6 |
| 20260509222140 | 60 | 2 | 0.9 | 1.7 | 0.00 | 0.25 | 0.25 | 83 | 1008.5 |
| 20260509221636 | 60 | 189 | 1.7 | 1.7 | 0.00 | 0.25 | 0.25 | 83 | 1008.5 |
| 20260509221132 | 59 | 30 | 0.9 | 1.7 | 0.00 | 0.25 | 0.25 | 84 | 1008.6 |
| 20260509220628 | 59 | 335 | 1.7 | 1.7 | 0.00 | 0.25 | 0.25 | 85 | 1008.4 |
| 20260509220124 | 59 | 82 | 0.9 | 1.7 | 0.00 | 0.25 | 0.25 | 84 | 1008.5 |
| 20260509215620 | 59 | 275 | 0.9 | 1.7 | 0.00 | 0.25 | 0.25 | 85 | 1008.5 |
| 20260509215117 | 59 | 165 | 0.9 | 1.7 | 0.00 | 0.25 | 0.25 | 86 | 1008.4 |
| 20260509214614 | 59 | 207 | 1.7 | 1.7 | 0.00 | 0.25 | 0.25 | 86 | 1008.8 |
| 20260509214110 | 59 | 28 | 1.7 | 1.7 | 0.00 | 0.25 | 0.25 | 87 | 1008.7 |
| 20260509213602 | 59 | 40 | 0.9 | 0.9 | 0.00 | 0.25 | 0.25 | 88 | 1008.7 |
| 20260509213058 | 59 | 34 | 0.9 | 0.9 | 0.00 | 0.25 | 0.25 | 87 | 1008.8 |
| 20260509212555 | 59 | 54 | 0.0 | 0.9 | 0.00 | 0.25 | 0.25 | 87 | 1008.7 |
| 20260509212052 | 60 | 251 | 1.7 | 1.7 | 0.00 | 0.25 | 0.25 | 84 | 1008.9 |
| 20260509211548 | 60 | 28 | 0.0 | 0.9 | 0.00 | 0.25 | 0.25 | 87 | 1008.9 |
| 20260509211045 | 58 | 193 | 0.9 | 1.7 | 0.00 | 0.25 | 0.25 | 90 | 1008.7 |
| 20260509210542 | 58 | 351 | 0.9 | 0.9 | 0.00 | 0.25 | 0.25 | 89 | 1008.9 |
| 20260509210038 | 60 | 333 | 1.7 | 1.7 | 0.00 | 0.25 | 0.25 | 86 | 1008.8 |
| 20260509205538 | 59 | 50 | 0.0 | 0.0 | 0.00 | 0.25 | 0.25 | 87 | 1008.8 |
| 20260509205033 | 60 | 183 | 1.7 | 2.6 | 0.00 | 0.25 | 0.25 | 86 | 1009.0 |
| 20260509204530 | 59 | 55 | 0.0 | 0.0 | 0.00 | 0.25 | 0.25 | 89 | 1008.9 |
| 20260509204026 | 58 | 97 | 0.9 | 1.7 | 0.00 | 0.25 | 0.25 | 89 | 1008.9 |
| 20260509203522 | 59 | 130 | 0.9 | 1.7 | 0.00 | 0.25 | 0.25 | 89 | 1009.3 |
| 20260509203021 | 57 | 47 | 0.0 | 0.0 | 0.00 | 0.25 | 0.25 | 90 | 1009.1 |
| 20260509202520 | 58 | 48 | 0.0 | 0.9 | 0.00 | 0.25 | 0.25 | 91 | 1009.3 |
| 20260509202016 | 57 | 42 | 0.0 | 0.0 | 0.00 | 0.25 | 0.25 | 92 | 1009.6 |
| 20260509201511 | 57 | 332 | 1.7 | 1.7 | 0.00 | 0.25 | 0.25 | 92 | 1009.4 |
| 20260509201009 | 57 | 48 | 0.0 | 0.0 | 0.00 | 0.25 | 0.25 | 93 | 1009.4 |
| 20260509200504 | 56 | 27 | 0.9 | 0.9 | 0.00 | 0.25 | 0.25 | 92 | 1009.5 |
| 20260509200000 | 56 | 40 | 0.0 | 0.0 | 0.00 | 0.25 | 0.25 | 93 | 1009.5 |
| 20260509195456 | 56 | 41 | 0.9 | 0.9 | 0.00 | 0.25 | 0.25 | 93 | 1009.5 |
| 20260509194956 | 56 | 42 | 0.0 | 0.9 | 0.00 | 0.25 | 0.25 | 93 | 1009.7 |
| 20260509194451 | 56 | 41 | 0.0 | 0.0 | 0.00 | 0.25 | 0.25 | 94 | 1009.6 |
| 20260509193948 | 56 | 39 | 0.0 | 0.0 | 0.00 | 0.25 | 0.25 | 95 | 1009.8 |
| 20260509193443 | 56 | 52 | 0.0 | 0.0 | 0.00 | 0.25 | 0.25 | 96 | 1009.6 |
| 20260509192939 | 54 | 44 | 0.0 | 0.0 | 0.00 | 0.25 | 0.25 | 95 | 1009.8 |
| 20260509192436 | 54 | 43 | 0.0 | 0.0 | 0.00 | 0.25 | 0.25 | 95 | 1009.6 |
| 20260509191931 | 54 | 44 | 0.0 | 0.0 | 0.07 | 0.25 | 0.25 | 95 | 1009.8 |
| 20260509191426 | 54 | 50 | 0.0 | 0.0 | 0.07 | 0.25 | 0.25 | 95 | 1010.2 |
| 20260509190922 | 55 | 61 | 0.0 | 0.0 | 0.00 | 0.24 | 0.24 | 96 | 1010.1 |
| 20260509190420 | 54 | 44 | 0.0 | 0.0 | 0.00 | 0.24 | 0.24 | 96 | 1010.2 |
| 20260509185918 | 54 | 41 | 0.0 | 0.0 | 0.05 | 0.24 | 0.24 | 95 | 1010.4 |
| 20260509185415 | 54 | 43 | 0.0 | 0.0 | 0.05 | 0.24 | 0.24 | 95 | 1010.3 |
| 20260509184911 | 53 | 38 | 0.0 | 0.9 | 0.07 | 0.23 | 0.23 | 95 | 1010.7 |
| 20260509184408 | 54 | 14 | 0.9 | 1.7 | 0.07 | 0.23 | 0.23 | 95 | 1010.5 |
| 20260509183905 | 54 | 31 | 0.9 | 0.9 | 0.05 | 0.22 | 0.22 | 95 | 1010.6 |
| 20260509183359 | 54 | 44 | 0.0 | 0.0 | 0.12 | 0.22 | 0.22 | 95 | 1010.7 |
| 20260509182856 | 54 | 46 | 0.0 | 0.9 | 0.07 | 0.21 | 0.21 | 94 | 1010.7 |
| 20260509182353 | 54 | 90 | 0.9 | 0.9 | 0.00 | 0.20 | 0.20 | 95 | 1010.7 |
| 20260509181851 | 54 | 50 | 0.0 | 0.0 | 0.07 | 0.20 | 0.20 | 95 | 1010.6 |
| 20260509181347 | 54 | 44 | 0.0 | 0.0 | 0.07 | 0.20 | 0.20 | 95 | 1010.6 |
| 20260509180845 | 54 | 48 | 0.0 | 0.0 | 0.00 | 0.19 | 0.19 | 95 | 1010.5 |
| 20260509180341 | 54 | 47 | 0.0 | 0.0 | 0.05 | 0.19 | 0.19 | 95 | 1010.5 |
| 20260509175838 | 54 | 48 | 0.0 | 0.0 | 0.05 | 0.19 | 0.19 | 95 | 1010.7 |
| 20260509175334 | 54 | 44 | 0.0 | 0.0 | 0.12 | 0.18 | 0.18 | 95 | 1010.7 |
| 20260509174830 | 54 | 38 | 0.0 | 0.0 | 0.12 | 0.18 | 0.18 | 95 | 1010.4 |
| 20260509174326 | 54 | 24 | 0.0 | 0.0 | 0.12 | 0.16 | 0.16 | 95 | 1010.6 |
| 20260509173822 | 54 | 45 | 0.0 | 0.0 | 0.12 | 0.15 | 0.15 | 95 | 1010.8 |
| 20260509173317 | 54 | 47 | 0.0 | 0.0 | 0.17 | 0.15 | 0.15 | 95 | 1010.9 |
| 20260509172814 | 54 | 42 | 0.0 | 0.9 | 0.12 | 0.13 | 0.13 | 95 | 1010.7 |
| 20260509172311 | 54 | 31 | 0.9 | 0.9 | 0.12 | 0.12 | 0.12 | 94 | 1010.8 |
| 20260509171806 | 54 | 34 | 0.9 | 0.9 | 0.19 | 0.11 | 0.11 | 94 | 1010.5 |
| 20260509171303 | 54 | 43 | 0.0 | 0.0 | 0.19 | 0.10 | 0.10 | 94 | 1010.6 |
| 20260509170759 | 54 | 36 | 0.0 | 0.9 | 0.24 | 0.09 | 0.09 | 93 | 1010.9 |
| 20260509170255 | 55 | 313 | 1.7 | 1.7 | 0.24 | 0.07 | 0.07 | 92 | 1010.9 |
| 20260509165754 | 55 | 324 | 1.7 | 1.7 | 0.19 | 0.05 | 0.05 | 92 | 1011.0 |
| 20260509165249 | 55 | 31 | 0.9 | 0.9 | 0.07 | 0.03 | 0.03 | 90 | 1010.8 |
| 20260509164746 | 55 | 44 | 0.0 | 0.0 | 0.12 | 0.03 | 0.03 | 90 | 1010.8 |
| 20260509164242 | 56 | 43 | 0.0 | 0.0 | 0.05 | 0.02 | 0.02 | 88 | 1010.9 |
| 20260509163738 | 56 | 93 | 1.7 | 1.7 | 0.00 | 0.01 | 0.01 | 87 | 1010.9 |
| 20260509163235 | 57 | 37 | 0.9 | 0.9 | 0.07 | 0.01 | 0.01 | 87 | 1011.0 |
| 20260509162733 | 57 | 36 | 0.9 | 0.9 | 0.07 | 0.01 | 0.01 | 85 | 1010.9 |
| 20260509162228 | 57 | 302 | 0.9 | 1.7 | 0.00 | 0.00 | 0.00 | 83 | 1010.9 |
| 20260509161723 | 58 | 40 | 0.9 | 0.9 | 0.00 | 0.00 | 0.00 | 84 | 1010.9 |
| 20260509161220 | 59 | 48 | 0.0 | 0.0 | 0.00 | 0.00 | 0.00 | 86 | 1010.7 |
| 20260509160715 | 58 | 31 | 1.7 | 1.7 | 0.00 | 0.00 | 0.00 | 84 | 1010.9 |
| 20260509160212 | 58 | 329 | 0.9 | 1.7 | 0.00 | 0.00 | 0.00 | 84 | 1010.8 |
| 20260509155707 | 59 | 53 | 0.9 | 0.9 | 0.00 | 0.00 | 0.00 | 84 | 1010.9 |
| 20260509155204 | 58 | 103 | 0.9 | 0.9 | 0.00 | 0.00 | 0.00 | 85 | 1011.1 |
| 20260509154700 | 57 | 20 | 0.9 | 0.9 | 0.00 | 0.00 | 0.00 | 86 | 1010.9 |
| 20260509154157 | 57 | 217 | 1.7 | 1.7 | 0.00 | 0.00 | 0.00 | 85 | 1011.1 |
| 20260509153654 | 57 | 19 | 0.9 | 1.7 | 0.00 | 0.00 | 0.00 | 86 | 1011.2 |
| 20260509153150 | 57 | 50 | 0.9 | 1.7 | 0.00 | 0.00 | 0.00 | 86 | 1011.0 |
| 20260509152646 | 57 | 221 | 2.6 | 2.6 | 0.00 | 0.00 | 0.00 | 86 | 1011.0 |
| 20260509152144 | 57 | 57 | 0.9 | 0.9 | 0.00 | 0.00 | 0.00 | 85 | 1011.3 |
| 20260509151640 | 56 | 42 | 0.0 | 0.0 | 0.00 | 0.00 | 0.00 | 84 | 1011.3 |
| 20260509151137 | 57 | 52 | 0.0 | 0.0 | 0.00 | 0.00 | 0.00 | 85 | 1011.0 |
| 20260509150635 | 56 | 31 | 0.9 | 0.9 | 0.00 | 0.00 | 0.00 | 85 | 1011.4 |
| 20260509150133 | 56 | 50 | 0.0 | 0.0 | 0.00 | 0.00 | 0.00 | 86 | 1010.8 |
| 20260509145629 | 56 | 51 | 0.0 | 0.0 | 0.00 | 0.00 | 0.00 | 86 | 1010.7 |
| 20260509145124 | 57 | 48 | 0.0 | 0.0 | 0.00 | 0.00 | 0.00 | 85 | 1010.7 |
| 20260509144621 | 57 | 47 | 0.0 | 0.0 | 0.00 | 0.00 | 0.00 | 84 | 1010.7 |
| 20260509144118 | 57 | 51 | 0.0 | 0.0 | 0.00 | 0.00 | 0.00 | 85 | 1010.7 |
| 20260509143615 | 56 | 53 | 0.0 | 0.0 | 0.00 | 0.00 | 0.00 | 86 | 1010.7 |
| 20260509143113 | 56 | 43 | 0.0 | 0.0 | 0.00 | 0.00 | 0.00 | 86 | 1010.6 |
| 20260509142608 | 55 | 46 | 0.0 | 0.9 | 0.00 | 0.00 | 0.00 | 87 | 1011.0 |
| 20260509142105 | 55 | 58 | 0.0 | 0.9 | 0.00 | 0.00 | 0.00 | 86 | 1011.0 |
| 20260509141601 | 55 | 32 | 0.9 | 0.9 | 0.00 | 0.00 | 0.00 | 87 | 1011.0 |
| 20260509141057 | 55 | 42 | 0.0 | 0.9 | 0.00 | 0.00 | 0.00 | 87 | 1010.9 |
| 20260509140555 | 55 | 40 | 1.7 | 1.7 | 0.00 | 0.00 | 0.00 | 88 | 1010.9 |
| 20260509140052 | 55 | 41 | 0.9 | 0.9 | 0.00 | 0.00 | 0.00 | 87 | 1010.7 |
| 20260509135549 | 55 | 62 | 0.0 | 0.9 | 0.00 | 0.00 | 0.00 | 87 | 1010.8 |
| 20260509135047 | 55 | 54 | 0.0 | 0.0 | 0.00 | 0.00 | 0.00 | 86 | 1010.9 |
| 20260509134544 | 55 | 43 | 0.0 | 0.9 | 0.00 | 0.00 | 0.00 | 86 | 1010.6 |
| 20260509134041 | 55 | 52 | 0.0 | 0.0 | 0.00 | 0.00 | 0.00 | 85 | 1010.9 |
| 20260509133538 | 55 | 41 | 0.9 | 0.9 | 0.00 | 0.00 | 0.00 | 85 | 1010.5 |
| 20260509133035 | 55 | 6 | 0.9 | 0.9 | 0.00 | 0.00 | 0.00 | 84 | 1010.9 |
| 20260509132533 | 55 | 62 | 0.0 | 0.9 | 0.00 | 0.00 | 0.00 | 85 | 1010.8 |
| 20260509132031 | 55 | 43 | 0.0 | 0.0 | 0.00 | 0.00 | 0.00 | 86 | 1010.4 |
| 20260509131522 | 55 | 47 | 0.0 | 0.0 | 0.00 | 0.00 | 0.00 | 87 | 1010.2 |
| 20260509131019 | 55 | 39 | 1.7 | 1.7 | 0.00 | 0.00 | 0.00 | 86 | 1010.5 |
| 20260509130514 | 55 | 52 | 0.0 | 0.0 | 0.00 | 0.00 | 0.00 | 86 | 1010.3 |
| 20260509130012 | 55 | 50 | 0.0 | 0.0 | 0.00 | 0.00 | 0.00 | 84 | 1010.4 |
| 20260509125508 | 55 | 57 | 0.9 | 0.9 | 0.00 | 0.00 | 0.00 | 83 | 1010.7 |
| 20260509125004 | 55 | 46 | 0.0 | 0.0 | 0.00 | 0.00 | 0.00 | 84 | 1010.7 |
| 20260509124501 | 55 | 41 | 0.0 | 0.0 | 0.00 | 0.00 | 0.00 | 83 | 1010.9 |
| 20260509123958 | 55 | 51 | 0.0 | 0.0 | 0.00 | 0.00 | 0.00 | 84 | 1010.5 |
| 20260509123456 | 55 | 47 | 0.0 | 0.0 | 0.00 | 0.00 | 0.00 | 83 | 1010.6 |
| 20260509122951 | 54 | 46 | 0.0 | 0.0 | 0.00 | 0.00 | 0.00 | 82 | 1011.1 |
| 20260509122449 | 54 | 42 | 0.0 | 0.9 | 0.00 | 0.00 | 0.00 | 82 | 1010.8 |
| 20260509121945 | 54 | 43 | 0.9 | 0.9 | 0.00 | 0.00 | 0.00 | 82 | 1010.9 |
| 20260509121442 | 53 | 51 | 0.0 | 0.9 | 0.00 | 0.00 | 0.00 | 82 | 1011.1 |
| 20260509120940 | 53 | 32 | 0.9 | 0.9 | 0.00 | 0.00 | 0.00 | 84 | 1011.1 |
| 20260509120438 | 53 | 51 | 0.0 | 0.0 | 0.00 | 0.00 | 0.00 | 85 | 1010.9 |
| 20260509115936 | 52 | 40 | 0.9 | 1.7 | 0.00 | 0.00 | 0.00 | 86 | 1011.0 |
| 20260509115433 | 52 | 46 | 0.0 | 0.0 | 0.00 | 0.00 | 0.00 | 86 | 1010.9 |
| 20260509114930 | 52 | 64 | 0.9 | 0.9 | 0.00 | 0.00 | 0.00 | 87 | 1011.0 |
| 20260509114429 | 52 | 49 | 0.0 | 0.0 | 0.00 | 0.00 | 0.00 | 88 | 1010.8 |
| 20260509113928 | 51 | 43 | 0.9 | 1.7 | 0.00 | 0.00 | 0.00 | 88 | 1010.7 |
| 20260509113425 | 51 | 46 | 0.0 | 0.9 | 0.00 | 0.00 | 0.00 | 88 | 1010.6 |
| 20260509112921 | 51 | 54 | 0.0 | 0.0 | 0.00 | 0.00 | 0.00 | 89 | 1010.7 |
| 20260509112419 | 51 | 48 | 0.0 | 0.0 | 0.00 | 0.00 | 0.00 | 90 | 1010.6 |
| 20260509111915 | 51 | 52 | 0.0 | 0.0 | 0.00 | 0.00 | 0.00 | 90 | 1010.6 |
| 20260509111412 | 50 | 64 | 0.0 | 0.9 | 0.00 | 0.00 | 0.00 | 90 | 1010.7 |
| 20260509110910 | 50 | 47 | 0.9 | 0.9 | 0.00 | 0.00 | 0.00 | 91 | 1010.6 |
| 20260509110406 | 50 | 34 | 0.9 | 0.9 | 0.00 | 0.00 | 0.00 | 91 | 1010.5 |
| 20260509105904 | 50 | 43 | 0.0 | 0.9 | 0.00 | 0.00 | 0.00 | 91 | 1010.7 |
| 20260509105403 | 50 | 42 | 0.0 | 0.0 | 0.00 | 0.00 | 0.00 | 92 | 1010.6 |
| 20260509104859 | 49 | 47 | 0.0 | 0.0 | 0.00 | 0.00 | 0.00 | 92 | 1010.5 |
| 20260509104356 | 49 | 33 | 0.0 | 0.9 | 0.00 | 0.00 | 0.00 | 92 | 1010.8 |
| 20260509103853 | 49 | 36 | 0.9 | 0.9 | 0.00 | 0.00 | 0.00 | 92 | 1010.5 |
| 20260509103350 | 49 | 51 | 0.0 | 0.9 | 0.00 | 0.00 | 0.00 | 93 | 1010.3 |
| 20260509102849 | 49 | 57 | 0.0 | 0.9 | 0.00 | 0.00 | 0.00 | 93 | 1010.4 |
| 20260509102346 | 49 | 51 | 0.0 | 0.0 | 0.00 | 0.00 | 0.00 | 93 | 1010.2 |
| 20260509101841 | 49 | 44 | 0.0 | 0.0 | 0.00 | 0.00 | 0.00 | 93 | 1010.2 |
| 20260509101338 | 49 | 68 | 0.0 | 0.0 | 0.00 | 0.00 | 0.00 | 93 | 1010.1 |
| 20260509100836 | 48 | 44 | 0.0 | 0.0 | 0.00 | 0.00 | 0.00 | 93 | 1010.6 |
| 20260509100333 | 48 | 48 | 0.0 | 0.9 | 0.00 | 0.00 | 0.00 | 93 | 1010.3 |
| 20260509095830 | 48 | 49 | 0.0 | 0.0 | 0.00 | 0.00 | 0.00 | 93 | 1010.4 |
| 20260509095327 | 48 | 50 | 0.0 | 0.9 | 0.00 | 0.00 | 0.00 | 93 | 1010.3 |
| 20260509094824 | 48 | 49 | 0.0 | 0.0 | 0.00 | 0.00 | 0.00 | 93 | 1010.5 |
| 20260509094320 | 48 | 46 | 0.0 | 0.0 | 0.00 | 0.00 | 0.00 | 93 | 1010.7 |
| 20260509093818 | 48 | 46 | 0.0 | 0.0 | 0.00 | 0.00 | 0.00 | 93 | 1010.5 |
| 20260509093315 | 48 | 46 | 0.0 | 0.0 | 0.00 | 0.00 | 0.00 | 93 | 1010.4 |
| 20260509092814 | 48 | 46 | 0.0 | 0.0 | 0.00 | 0.00 | 0.00 | 93 | 1010.5 |
| 20260509092311 | 48 | 45 | 0.0 | 0.9 | 0.00 | 0.00 | 0.00 | 93 | 1010.4 |
| 20260509091809 | 48 | 48 | 0.0 | 0.0 | 0.00 | 0.00 | 0.00 | 93 | 1010.7 |
| 20260509091305 | 48 | 48 | 0.0 | 0.0 | 0.00 | 0.00 | 0.00 | 93 | 1010.5 |
| 20260509090803 | 48 | 48 | 0.0 | 0.0 | 0.00 | 0.00 | 0.00 | 93 | 1010.7 |
| 20260509090300 | 48 | 50 | 0.0 | 0.0 | 0.00 | 0.00 | 0.00 | 93 | 1010.8 |
| 20260509085757 | 48 | 48 | 0.0 | 0.0 | 0.00 | 0.00 | 0.00 | 93 | 1010.7 |
| 20260509085254 | 48 | 48 | 0.0 | 0.0 | 0.00 | 0.00 | 0.00 | 93 | 1010.7 |
| 20260509084751 | 48 | 50 | 0.0 | 0.0 | 0.00 | 0.00 | 0.00 | 93 | 1010.7 |
| 20260509084248 | 48 | 43 | 0.0 | 0.9 | 0.00 | 0.00 | 0.00 | 93 | 1010.7 |
| 20260509083746 | 48 | 41 | 0.9 | 0.9 | 0.00 | 0.00 | 0.00 | 93 | 1010.7 |
| 20260509083242 | 48 | 50 | 0.0 | 0.0 | 0.00 | 0.00 | 0.00 | 93 | 1011.1 |
| 20260509082739 | 48 | 46 | 0.0 | 0.0 | 0.00 | 0.00 | 0.00 | 93 | 1011.0 |
| 20260509082235 | 48 | 46 | 0.0 | 0.0 | 0.00 | 0.00 | 0.00 | 93 | 1011.2 |
| 20260509081732 | 48 | 45 | 0.0 | 0.0 | 0.00 | 0.00 | 0.00 | 93 | 1011.3 |
| 20260509081230 | 48 | 46 | 0.0 | 0.0 | 0.00 | 0.00 | 0.00 | 93 | 1011.3 |
| 20260509080728 | 48 | 46 | 0.0 | 0.0 | 0.00 | 0.00 | 0.00 | 92 | 1011.2 |
| 20260509080225 | 48 | 45 | 0.0 | 0.0 | 0.00 | 0.00 | 0.00 | 92 | 1011.4 |
| 20260509075723 | 48 | 45 | 0.0 | 0.0 | 0.00 | 0.00 | 0.00 | 92 | 1011.3 |
| 20260509075221 | 49 | 46 | 0.0 | 0.0 | 0.00 | 0.00 | 0.00 | 92 | 1010.9 |
| 20260509074717 | 49 | 46 | 0.0 | 0.0 | 0.00 | 0.00 | 0.00 | 91 | 1011.1 |
| 20260509074215 | 49 | 46 | 0.0 | 0.9 | 0.00 | 0.00 | 0.00 | 91 | 1011.3 |
| 20260509073711 | 49 | 43 | 0.0 | 0.9 | 0.00 | 0.00 | 0.00 | 91 | 1011.1 |
| 20260509073208 | 49 | 49 | 0.0 | 0.0 | 0.00 | 0.00 | 0.00 | 91 | 1011.1 |
| 20260509072704 | 49 | 49 | 0.0 | 0.0 | 0.00 | 0.00 | 0.00 | 91 | 1011.1 |
| 20260509072201 | 49 | 49 | 0.0 | 0.0 | 0.00 | 0.00 | 0.00 | 91 | 1011.3 |
| 20260509071658 | 49 | 49 | 0.0 | 0.0 | 0.00 | 0.00 | 0.00 | 91 | 1011.3 |
| 20260509071155 | 50 | 49 | 0.0 | 0.0 | 0.00 | 0.00 | 0.00 | 91 | 1011.2 |
| 20260509070652 | 50 | 48 | 0.0 | 0.0 | 0.00 | 0.00 | 0.00 | 90 | 1011.2 |
| 20260509070148 | 50 | 49 | 0.0 | 0.9 | 0.00 | 0.00 | 0.00 | 90 | 1011.3 |